createdAt,value
2022-11-05T00:00:37.467Z,99236.03
2022-11-05T00:01:43.140Z,99239.47
2022-11-05T00:02:48.853Z,99239.47
2022-11-05T00:03:54.719Z,99234.72
2022-11-05T00:05:00.318Z,99230.91
2022-11-05T00:06:07.837Z,99233.91
2022-11-05T00:07:13.888Z,99226.47
2022-11-05T00:08:22.147Z,99230.44
2022-11-05T00:09:28.071Z,99235.09
2022-11-05T00:10:26.275Z,99236.91
2022-11-05T00:11:17.856Z,99245.56
2022-11-05T00:12:31.925Z,99246.59
2022-11-05T00:13:37.621Z,99241.59
2022-11-05T00:14:43.285Z,99242.97
2022-11-05T00:15:48.852Z,99248.38
2022-11-05T00:16:44.783Z,99240.28
2022-11-05T00:17:31.968Z,99237.13
2022-11-05T00:18:18.911Z,99237.03
2022-11-05T00:19:10.260Z,99247.53
2022-11-05T00:19:57.243Z,99241.59
2022-11-05T00:20:44.323Z,99244.09
2022-11-05T00:21:49.833Z,99246.50
2022-11-05T00:22:55.521Z,99245.31
2022-11-05T00:24:01.184Z,99255.22
2022-11-05T00:25:06.885Z,99251.53
2022-11-05T00:25:56.396Z,99250.12
2022-11-05T00:26:43.245Z,99249.84
2022-11-05T00:27:33.393Z,99253.50
2022-11-05T00:28:20.380Z,99250.34
2022-11-05T00:29:07.301Z,99245.31
2022-11-05T00:29:54.334Z,99242.47
2022-11-05T00:30:41.279Z,99238.31
2022-11-05T00:31:28.663Z,99252.44
2022-11-05T00:32:15.675Z,99249.72
2022-11-05T00:33:03.668Z,99252.00
2022-11-05T00:33:50.574Z,99250.66
2022-11-05T00:34:37.575Z,99254.53
2022-11-05T00:35:24.540Z,99249.09
2022-11-05T00:36:11.938Z,99249.09
2022-11-05T00:36:58.876Z,99250.06
2022-11-05T00:37:50.096Z,99254.41
2022-11-05T00:38:37.741Z,99253.56
2022-11-05T00:39:24.726Z,99251.53
2022-11-05T00:40:12.632Z,99255.03
2022-11-05T00:41:00.011Z,99253.00
2022-11-05T00:42:06.939Z,99251.78
2022-11-05T00:43:12.650Z,99258.00
2022-11-05T00:44:18.556Z,99260.50
2022-11-05T00:45:06.745Z,99264.25
2022-11-05T00:45:53.714Z,99257.44
2022-11-05T00:46:40.663Z,99261.34
2022-11-05T00:47:46.336Z,99256.16
2022-11-05T00:48:51.927Z,99266.00
2022-11-05T00:49:38.850Z,99265.72
2022-11-05T00:50:25.818Z,99260.31
2022-11-05T00:51:12.703Z,99261.16
2022-11-05T00:52:18.143Z,99270.06
2022-11-05T00:53:05.403Z,99265.06
2022-11-05T00:53:52.370Z,99266.66
2022-11-05T00:54:39.229Z,99267.78
2022-11-05T00:55:40.466Z,99263.59
2022-11-05T00:56:27.393Z,99277.97
2022-11-05T00:57:14.292Z,99279.47
2022-11-05T00:58:02.845Z,99277.34
2022-11-05T00:58:49.725Z,99273.00
2022-11-05T00:59:36.576Z,99272.03
2022-11-05T01:00:24.899Z,99275.75
2022-11-05T01:01:12.330Z,99275.75
2022-11-05T01:01:59.908Z,99276.13
2022-11-05T01:02:47.164Z,99267.03
2022-11-05T01:03:36.818Z,99280.84
2022-11-05T01:04:23.794Z,99277.41
2022-11-05T01:05:10.817Z,99282.16
2022-11-05T01:06:00.452Z,99275.03
2022-11-05T01:06:47.351Z,99281.78
2022-11-05T01:07:34.259Z,99273.16
2022-11-05T01:08:22.834Z,99275.66
2022-11-05T01:09:09.772Z,99272.75
2022-11-05T01:09:56.795Z,99278.28
2022-11-05T01:10:46.352Z,99266.56
2022-11-05T01:11:33.619Z,99268.34
2022-11-05T01:12:20.653Z,99275.94
2022-11-05T01:13:12.748Z,99270.56
2022-11-05T01:14:05.473Z,99280.59
2022-11-05T01:14:52.411Z,99278.56
2022-11-05T01:15:39.413Z,99280.50
2022-11-05T01:16:26.344Z,99276.59
2022-11-05T01:17:13.219Z,99280.31
2022-11-05T01:18:00.216Z,99280.50
2022-11-05T01:18:47.243Z,99279.47
2022-11-05T01:19:34.306Z,99280.41
2022-11-05T01:20:21.257Z,99282.28
2022-11-05T01:21:16.100Z,99274.56
2022-11-05T01:22:03.035Z,99280.12
2022-11-05T01:22:49.965Z,99269.84
2022-11-05T01:23:36.926Z,99283.69
2022-11-05T01:24:23.810Z,99279.94
2022-11-05T01:25:10.868Z,99280.78
2022-11-05T01:25:59.043Z,99276.50
2022-11-05T01:26:46.023Z,99271.22
2022-11-05T01:27:32.960Z,99273.06
2022-11-05T01:28:19.897Z,99274.94
2022-11-05T01:29:06.870Z,99269.56
2022-11-05T01:29:53.871Z,99274.66
2022-11-05T01:30:40.967Z,99273.34
2022-11-05T01:31:29.418Z,99278.09
2022-11-05T01:32:16.373Z,99281.81
2022-11-05T01:33:03.765Z,99288.84
2022-11-05T01:33:51.332Z,99289.78
2022-11-05T01:34:38.321Z,99287.75
2022-11-05T01:35:25.320Z,99289.50
2022-11-05T01:36:12.885Z,99287.19
2022-11-05T01:36:59.851Z,99293.69
2022-11-05T01:37:47.474Z,99287.53
2022-11-05T01:38:34.775Z,99303.91
2022-11-05T01:39:21.660Z,99296.84
2022-11-05T01:40:12.549Z,99299.53
2022-11-05T01:40:59.547Z,99294.53
2022-11-05T01:41:46.570Z,99303.91
2022-11-05T01:42:34.049Z,99306.13
2022-11-05T01:43:23.918Z,99299.44
2022-11-05T01:44:48.292Z,99305.66
2022-11-05T01:45:35.381Z,99291.19
2022-11-05T01:46:26.462Z,99289.16
2022-11-05T01:47:32.798Z,99298.63
2022-11-05T01:48:33.623Z,99293.81
2022-11-05T01:49:23.353Z,99288.31
2022-11-05T01:50:31.599Z,99287.31
2022-11-05T01:51:21.935Z,99290.25
2022-11-05T01:52:08.910Z,99286.56
2022-11-05T01:53:03.853Z,99275.97
2022-11-05T01:53:55.827Z,99283.41
2022-11-05T01:54:42.766Z,99274.50
2022-11-05T01:55:32.162Z,99282.19
2022-11-05T01:56:23.002Z,99278.56
2022-11-05T01:57:10.712Z,99276.63
2022-11-05T01:57:59.245Z,99283.47
2022-11-05T01:59:10.029Z,99283.03
2022-11-05T01:59:59.202Z,99290.81
2022-11-05T02:00:46.121Z,99284.78
2022-11-05T02:01:33.481Z,99294.72
2022-11-05T02:02:20.709Z,99282.41
2022-11-05T02:03:08.114Z,99287.88
2022-11-05T02:03:58.546Z,99292.31
2022-11-05T02:04:49.809Z,99287.56
2022-11-05T02:05:37.019Z,99290.25
2022-11-05T02:06:25.340Z,99290.91
2022-11-05T02:07:12.568Z,99295.28
2022-11-05T02:07:59.883Z,99300.50
2022-11-05T02:09:03.951Z,99297.03
2022-11-05T02:10:02.541Z,99296.94
2022-11-05T02:10:49.919Z,99292.69
2022-11-05T02:11:36.848Z,99295.38
2022-11-05T02:12:24.372Z,99298.06
2022-11-05T02:13:11.590Z,99297.41
2022-11-05T02:13:58.740Z,99305.03
2022-11-05T02:14:45.749Z,99303.53
2022-11-05T02:15:58.008Z,99298.91
2022-11-05T02:16:49.559Z,99305.59
2022-11-05T02:17:48.518Z,99299.06
2022-11-05T02:18:47.935Z,99298.16
2022-11-05T02:19:53.756Z,99290.81
2022-11-05T02:20:59.593Z,99300.09
2022-11-05T02:22:05.281Z,99301.75
2022-11-05T02:23:04.351Z,99297.50
2022-11-05T02:24:07.958Z,99307.28
2022-11-05T02:25:11.146Z,99305.75
2022-11-05T02:26:05.521Z,99302.63
2022-11-05T02:27:05.256Z,99307.81
2022-11-05T02:28:13.850Z,99309.22
2022-11-05T02:29:37.970Z,99311.72
2022-11-05T02:30:26.453Z,99304.66
2022-11-05T02:31:18.052Z,99309.41
2022-11-05T02:32:34.085Z,99311.53
2022-11-05T02:33:56.992Z,99315.13
2022-11-05T02:34:57.831Z,99307.06
2022-11-05T02:36:03.197Z,99312.19
2022-11-05T02:37:05.377Z,99310.31
2022-11-05T02:37:57.031Z,99314.22
2022-11-05T02:38:56.193Z,99323.31
2022-11-05T02:39:59.223Z,99320.63
2022-11-05T02:41:06.534Z,99314.87
2022-11-05T02:42:21.138Z,99313.56
2022-11-05T02:43:25.166Z,99311.06
2022-11-05T02:44:15.474Z,99313.94
2022-11-05T02:45:21.568Z,99311.12
2022-11-05T02:46:46.374Z,99314.31
2022-11-05T02:48:02.573Z,99312.19
2022-11-05T02:48:59.780Z,99325.72
2022-11-05T02:50:10.806Z,99322.84
2022-11-05T02:51:16.058Z,99317.81
2022-11-05T02:52:11.225Z,99317.47
2022-11-05T02:53:00.227Z,99319.50
2022-11-05T02:53:57.700Z,99320.63
2022-11-05T02:54:54.557Z,99316.00
2022-11-05T02:55:54.728Z,99300.19
2022-11-05T02:56:45.653Z,99315.34
2022-11-05T02:57:35.841Z,99315.34
2022-11-05T02:58:23.021Z,99312.19
2022-11-05T02:59:09.913Z,99319.69
2022-11-05T03:00:07.205Z,99319.88
2022-11-05T03:00:55.618Z,99310.88
2022-11-05T03:01:44.463Z,99315.06
2022-11-05T03:02:31.797Z,99317.28
2022-11-05T03:03:30.032Z,99320.06
2022-11-05T03:04:18.145Z,99317.00
2022-11-05T03:05:05.635Z,99317.81
2022-11-05T03:06:12.397Z,99312.56
2022-11-05T03:07:20.890Z,99306.06
2022-11-05T03:08:17.200Z,99311.78
2022-11-05T03:09:07.078Z,99308.19
2022-11-05T03:10:03.147Z,99309.09
2022-11-05T03:11:00.157Z,99309.47
2022-11-05T03:12:05.837Z,99310.50
2022-11-05T03:13:10.237Z,99309.38
2022-11-05T03:14:07.454Z,99311.34
2022-11-05T03:15:15.899Z,99307.81
2022-11-05T03:16:18.909Z,99297.78
2022-11-05T03:17:38.390Z,99300.66
2022-11-05T03:18:29.340Z,99295.28
2022-11-05T03:19:31.490Z,99293.41
2022-11-05T03:20:39.454Z,99285.63
2022-11-05T03:22:05.792Z,99281.44
2022-11-05T03:22:58.844Z,99287.47
2022-11-05T03:23:54.862Z,99284.78
2022-11-05T03:24:47.091Z,99286.00
2022-11-05T03:25:37.988Z,99290.16
2022-11-05T03:26:32.381Z,99285.66
2022-11-05T03:27:23.784Z,99285.00
2022-11-05T03:28:11.489Z,99286.00
2022-11-05T03:29:11.141Z,99289.91
2022-11-05T03:30:06.841Z,99285.81
2022-11-05T03:30:56.320Z,99291.38
2022-11-05T03:31:44.757Z,99284.69
2022-11-05T03:32:34.652Z,99292.84
2022-11-05T03:33:24.981Z,99294.06
2022-11-05T03:34:13.169Z,99291.19
2022-11-05T03:35:08.044Z,99291.91
2022-11-05T03:36:01.390Z,99293.41
2022-11-05T03:36:51.944Z,99293.59
2022-11-05T03:37:40.069Z,99286.16
2022-11-05T03:38:34.119Z,99285.34
2022-11-05T03:39:27.831Z,99278.09
2022-11-05T03:40:15.623Z,99284.78
2022-11-05T03:41:06.434Z,99281.56
2022-11-05T03:41:54.243Z,99289.50
2022-11-05T03:42:44.370Z,99286.28
2022-11-05T03:43:36.082Z,99288.84
2022-11-05T03:44:28.243Z,99294.06
2022-11-05T03:45:19.662Z,99300.66
2022-11-05T03:46:15.811Z,99303.72
2022-11-05T03:47:07.802Z,99306.94
2022-11-05T03:47:58.221Z,99318.75
2022-11-05T03:48:48.534Z,99312.16
2022-11-05T03:49:41.819Z,99314.19
2022-11-05T03:50:41.419Z,99316.72
2022-11-05T03:51:59.463Z,99323.28
2022-11-05T03:52:51.869Z,99324.47
2022-11-05T03:53:50.505Z,99326.06
2022-11-05T03:54:37.548Z,99329.09
2022-11-05T03:55:27.956Z,99331.78
2022-11-05T03:56:23.404Z,99329.31
2022-11-05T03:57:19.077Z,99336.00
2022-11-05T03:58:06.497Z,99331.06
2022-11-05T03:58:58.666Z,99334.59
2022-11-05T03:59:48.174Z,99333.56
2022-11-05T04:00:35.587Z,99334.50
2022-11-05T04:01:22.951Z,99341.91
2022-11-05T04:02:11.598Z,99343.44
2022-11-05T04:02:58.825Z,99342.78
2022-11-05T04:03:45.920Z,99339.63
2022-11-05T04:04:32.956Z,99346.37
2022-11-05T04:05:19.921Z,99341.28
2022-11-05T04:06:26.789Z,99337.03
2022-11-05T04:07:32.630Z,99342.97
2022-11-05T04:08:38.261Z,99346.00
2022-11-05T04:09:43.871Z,99345.66
2022-11-05T04:11:06.356Z,99356.88
2022-11-05T04:12:11.991Z,99350.53
2022-11-05T04:13:17.503Z,99351.69
2022-11-05T04:14:04.561Z,99357.41
2022-11-05T04:14:51.556Z,99355.09
2022-11-05T04:15:56.795Z,99354.28
2022-11-05T04:17:02.161Z,99358.69
2022-11-05T04:17:49.125Z,99356.00
2022-11-05T04:18:36.961Z,99357.84
2022-11-05T04:19:42.595Z,99357.50
2022-11-05T04:20:48.267Z,99366.19
2022-11-05T04:21:54.115Z,99360.00
2022-11-05T04:22:59.754Z,99367.22
2022-11-05T04:24:05.626Z,99360.19
2022-11-05T04:24:52.612Z,99365.38
2022-11-05T04:25:39.698Z,99359.53
2022-11-05T04:26:26.688Z,99364.62
2022-11-05T04:27:13.543Z,99367.31
2022-11-05T04:28:00.943Z,99369.16
2022-11-05T04:29:07.997Z,99351.81
2022-11-05T04:30:13.832Z,99363.59
2022-11-05T04:31:01.084Z,99349.97
2022-11-05T04:31:48.022Z,99350.44
2022-11-05T04:32:34.996Z,99345.06
2022-11-05T04:33:21.893Z,99346.09
2022-11-05T04:34:09.144Z,99340.81
2022-11-05T04:34:56.110Z,99333.31
2022-11-05T04:35:48.014Z,99338.97
2022-11-05T04:36:34.998Z,99329.41
2022-11-05T04:37:21.905Z,99323.09
2022-11-05T04:38:11.760Z,99324.69
2022-11-05T04:38:58.596Z,99326.75
2022-11-05T04:39:45.592Z,99320.97
2022-11-05T04:40:32.769Z,99315.13
2022-11-05T04:41:19.712Z,99321.81
2022-11-05T04:42:06.576Z,99316.72
2022-11-05T04:42:55.545Z,99319.22
2022-11-05T04:43:42.792Z,99324.13
2022-11-05T04:44:29.709Z,99320.41
2022-11-05T04:45:16.761Z,99319.56
2022-11-05T04:46:03.745Z,99312.34
2022-11-05T04:46:50.734Z,99314.37
2022-11-05T04:47:37.727Z,99317.78
2022-11-05T04:48:24.709Z,99314.09
2022-11-05T04:49:11.687Z,99319.31
2022-11-05T04:49:58.658Z,99311.97
2022-11-05T04:50:45.999Z,99316.63
2022-11-05T04:51:33.092Z,99323.00
2022-11-05T04:52:19.991Z,99322.00
2022-11-05T04:53:06.996Z,99330.41
2022-11-05T04:53:54.643Z,99335.63
2022-11-05T04:54:41.633Z,99338.31
2022-11-05T04:55:28.885Z,99348.03
2022-11-05T04:56:19.931Z,99345.06
2022-11-05T04:57:06.883Z,99361.37
2022-11-05T04:57:54.888Z,99362.41
2022-11-05T04:58:42.654Z,99365.09
2022-11-05T04:59:29.648Z,99370.75
2022-11-05T05:00:17.693Z,99376.69
2022-11-05T05:01:04.692Z,99374.72
2022-11-05T05:01:53.254Z,99387.34
2022-11-05T05:02:40.334Z,99388.16
2022-11-05T05:03:27.404Z,99379.44
2022-11-05T05:04:14.820Z,99381.41
2022-11-05T05:05:02.473Z,99380.41
2022-11-05T05:05:52.894Z,99378.94
2022-11-05T05:06:40.705Z,99387.91
2022-11-05T05:07:28.725Z,99385.22
2022-11-05T05:08:15.723Z,99379.47
2022-11-05T05:09:02.605Z,99390.97
2022-11-05T05:09:49.763Z,99388.47
2022-11-05T05:10:37.109Z,99398.13
2022-11-05T05:11:24.015Z,99400.53
2022-11-05T05:12:10.941Z,99395.62
2022-11-05T05:12:57.895Z,99390.66
2022-11-05T05:13:45.550Z,99401.59
2022-11-05T05:14:32.596Z,99385.28
2022-11-05T05:15:19.800Z,99394.25
2022-11-05T05:16:09.153Z,99386.09
2022-11-05T05:16:56.070Z,99390.53
2022-11-05T05:17:43.030Z,99392.75
2022-11-05T05:18:29.939Z,99389.41
2022-11-05T05:19:16.960Z,99398.13
2022-11-05T05:20:22.510Z,99397.09
2022-11-05T05:21:28.246Z,99393.41
2022-11-05T05:22:15.188Z,99395.94
2022-11-05T05:23:02.275Z,99389.16
2022-11-05T05:23:49.232Z,99393.25
2022-11-05T05:24:36.066Z,99391.06
2022-11-05T05:25:23.445Z,99396.66
2022-11-05T05:26:10.566Z,99397.66
2022-11-05T05:26:57.480Z,99396.00
2022-11-05T05:27:44.425Z,99387.38
2022-11-05T05:28:31.357Z,99382.59
2022-11-05T05:29:18.518Z,99379.50
2022-11-05T05:30:05.951Z,99384.25
2022-11-05T05:30:58.513Z,99381.56
2022-11-05T05:31:45.682Z,99377.75
2022-11-05T05:32:32.612Z,99377.94
2022-11-05T05:33:19.724Z,99366.50
2022-11-05T05:34:08.228Z,99370.69
2022-11-05T05:34:55.194Z,99365.59
2022-11-05T05:35:42.044Z,99365.88
2022-11-05T05:36:29.770Z,99369.13
2022-11-05T05:37:17.090Z,99364.50
2022-11-05T05:38:04.083Z,99369.97
2022-11-05T05:38:51.381Z,99372.09
2022-11-05T05:39:38.451Z,99371.09
2022-11-05T05:40:25.397Z,99371.81
2022-11-05T05:41:12.512Z,99382.28
2022-11-05T05:41:59.474Z,99383.75
2022-11-05T05:42:46.347Z,99385.22
2022-11-05T05:43:34.183Z,99382.72
2022-11-05T05:44:21.567Z,99382.53
2022-11-05T05:45:08.836Z,99384.47
2022-11-05T05:45:57.515Z,99390.41
2022-11-05T05:46:44.496Z,99390.19
2022-11-05T05:47:31.436Z,99399.41
2022-11-05T05:48:18.454Z,99395.41
2022-11-05T05:49:09.609Z,99401.91
2022-11-05T05:49:59.217Z,99404.22
2022-11-05T05:50:46.109Z,99404.22
2022-11-05T05:51:32.971Z,99399.22
2022-11-05T05:52:20.125Z,99407.47
2022-11-05T05:53:07.399Z,99405.25
2022-11-05T05:53:55.166Z,99403.03
2022-11-05T05:54:43.131Z,99405.38
2022-11-05T05:55:30.146Z,99400.44
2022-11-05T05:56:19.615Z,99408.34
2022-11-05T05:57:06.570Z,99401.53
2022-11-05T05:57:54.480Z,99407.06
2022-11-05T05:58:42.008Z,99403.72
2022-11-05T05:59:28.913Z,99405.59
2022-11-05T06:00:16.272Z,99403.56
2022-11-05T06:01:05.448Z,99406.72
2022-11-05T06:01:52.571Z,99413.66
2022-11-05T06:02:39.927Z,99407.06
2022-11-05T06:03:27.005Z,99417.50
2022-11-05T06:04:14.056Z,99424.16
2022-11-05T06:05:01.051Z,99412.22
2022-11-05T06:05:47.940Z,99426.22
2022-11-05T06:06:34.924Z,99425.28
2022-11-05T06:07:21.904Z,99432.47
2022-11-05T06:08:08.883Z,99430.97
2022-11-05T06:08:56.476Z,99430.59
2022-11-05T06:09:43.604Z,99432.38
2022-11-05T06:10:30.593Z,99435.06
2022-11-05T06:11:17.613Z,99436.87
2022-11-05T06:12:04.939Z,99430.97
2022-11-05T06:12:51.875Z,99430.78
2022-11-05T06:13:38.834Z,99443.56
2022-11-05T06:14:25.858Z,99448.50
2022-11-05T06:15:12.820Z,99442.25
2022-11-05T06:16:03.893Z,99449.34
2022-11-05T06:16:50.735Z,99444.06
2022-11-05T06:17:37.842Z,99451.31
2022-11-05T06:18:24.801Z,99452.50
2022-11-05T06:19:11.815Z,99449.94
2022-11-05T06:19:58.866Z,99448.88
2022-11-05T06:20:45.838Z,99449.38
2022-11-05T06:21:32.825Z,99438.53
2022-11-05T06:22:19.781Z,99448.09
2022-11-05T06:23:07.035Z,99448.25
2022-11-05T06:23:54.115Z,99455.13
2022-11-05T06:24:41.066Z,99451.06
2022-11-05T06:25:28.028Z,99454.31
2022-11-05T06:26:17.097Z,99452.66
2022-11-05T06:27:04.191Z,99451.13
2022-11-05T06:27:51.134Z,99450.88
2022-11-05T06:28:38.104Z,99449.97
2022-11-05T06:29:25.096Z,99448.59
2022-11-05T06:30:12.302Z,99453.50
2022-11-05T06:30:59.727Z,99449.41
2022-11-05T06:31:46.614Z,99454.59
2022-11-05T06:32:33.534Z,99461.50
2022-11-05T06:33:20.405Z,99454.59
2022-11-05T06:34:07.488Z,99459.34
2022-11-05T06:34:54.437Z,99453.84
2022-11-05T06:35:41.439Z,99456.00
2022-11-05T06:36:28.426Z,99463.22
2022-11-05T06:37:15.375Z,99460.37
2022-11-05T06:38:02.576Z,99465.19
2022-11-05T06:38:49.492Z,99466.41
2022-11-05T06:39:37.280Z,99462.78
2022-11-05T06:40:24.189Z,99468.84
2022-11-05T06:41:11.275Z,99467.31
2022-11-05T06:42:17.149Z,99469.38
2022-11-05T06:43:05.151Z,99476.44
2022-11-05T06:43:52.126Z,99473.09
2022-11-05T06:44:39.054Z,99476.94
2022-11-05T06:45:26.038Z,99475.25
2022-11-05T06:46:13.111Z,99481.28
2022-11-05T06:47:00.583Z,99479.41
2022-11-05T06:47:47.800Z,99490.66
2022-11-05T06:48:34.938Z,99479.31
2022-11-05T06:49:24.928Z,99493.34
2022-11-05T06:50:11.949Z,99490.69
2022-11-05T06:50:58.962Z,99489.13
2022-11-05T06:51:45.891Z,99494.59
2022-11-05T06:52:37.007Z,99498.59
2022-11-05T06:53:26.986Z,99493.22
2022-11-05T06:54:14.030Z,99492.72
2022-11-05T06:55:00.903Z,99494.78
2022-11-05T06:55:48.286Z,99494.12
2022-11-05T06:56:35.299Z,99495.69
2022-11-05T06:57:22.237Z,99495.69
2022-11-05T06:58:09.247Z,99499.88
2022-11-05T06:58:56.128Z,99497.56
2022-11-05T06:59:43.265Z,99495.59
2022-11-05T07:00:30.472Z,99494.12
2022-11-05T07:01:17.886Z,99494.12
2022-11-05T07:02:05.120Z,99491.41
2022-11-05T07:02:52.269Z,99505.91
2022-11-05T07:03:39.693Z,99495.78
2022-11-05T07:04:26.646Z,99491.50
2022-11-05T07:05:14.498Z,99491.56
2022-11-05T07:06:03.123Z,99489.91
2022-11-05T07:06:50.091Z,99498.00
2022-11-05T07:07:42.386Z,99491.66
2022-11-05T07:08:33.986Z,99496.53
2022-11-05T07:09:20.882Z,99490.00
2022-11-05T07:10:10.036Z,99492.19
2022-11-05T07:10:56.947Z,99500.84
2022-11-05T07:11:43.958Z,99495.75
2022-11-05T07:12:31.019Z,99504.97
2022-11-05T07:13:17.921Z,99500.56
2022-11-05T07:14:04.812Z,99498.63
2022-11-05T07:14:51.889Z,99507.72
2022-11-05T07:15:38.859Z,99500.94
2022-11-05T07:16:25.824Z,99508.00
2022-11-05T07:17:12.733Z,99502.97
2022-11-05T07:18:00.774Z,99509.59
2022-11-05T07:18:47.955Z,99503.72
2022-11-05T07:19:35.275Z,99501.97
2022-11-05T07:20:22.186Z,99506.69
2022-11-05T07:21:09.084Z,99502.28
2022-11-05T07:21:56.017Z,99501.66
2022-11-05T07:22:43.472Z,99506.78
2022-11-05T07:23:30.514Z,99501.56
2022-11-05T07:24:17.498Z,99500.25
2022-11-05T07:25:05.848Z,99486.47
2022-11-05T07:25:53.112Z,99495.56
2022-11-05T07:26:40.181Z,99491.53
2022-11-05T07:27:27.147Z,99491.16
2022-11-05T07:28:14.742Z,99492.63
2022-11-05T07:29:01.817Z,99492.03
2022-11-05T07:29:48.665Z,99492.63
2022-11-05T07:30:36.536Z,99495.63
2022-11-05T07:31:23.828Z,99494.81
2022-11-05T07:32:10.876Z,99497.78
2022-11-05T07:32:58.114Z,99500.00
2022-11-05T07:33:45.028Z,99498.59
2022-11-05T07:34:32.760Z,99504.66
2022-11-05T07:35:19.721Z,99499.63
2022-11-05T07:36:07.023Z,99501.81
2022-11-05T07:36:53.986Z,99496.78
2022-11-05T07:37:44.960Z,99509.19
2022-11-05T07:38:31.881Z,99507.34
2022-11-05T07:39:18.862Z,99503.22
2022-11-05T07:40:06.355Z,99507.22
2022-11-05T07:40:53.451Z,99500.41
2022-11-05T07:41:40.616Z,99505.94
2022-11-05T07:42:27.536Z,99502.78
2022-11-05T07:43:14.838Z,99501.09
2022-11-05T07:44:03.566Z,99502.00
2022-11-05T07:44:50.542Z,99489.44
2022-11-05T07:45:37.570Z,99491.75
2022-11-05T07:46:24.628Z,99488.88
2022-11-05T07:47:11.568Z,99489.00
2022-11-05T07:48:01.013Z,99497.59
2022-11-05T07:48:47.952Z,99495.16
2022-11-05T07:49:34.990Z,99490.75
2022-11-05T07:50:23.602Z,99490.19
2022-11-05T07:51:10.706Z,99495.34
2022-11-05T07:51:57.698Z,99490.63
2022-11-05T07:52:45.385Z,99493.91
2022-11-05T07:53:32.269Z,99498.31
2022-11-05T07:54:19.257Z,99498.87
2022-11-05T07:55:06.992Z,99502.62
2022-11-05T07:55:54.106Z,99503.25
2022-11-05T07:56:41.130Z,99506.16
2022-11-05T07:57:28.180Z,99503.72
2022-11-05T07:58:15.067Z,99504.22
2022-11-05T07:59:02.205Z,99501.47
2022-11-05T07:59:49.170Z,99500.00
2022-11-05T08:00:36.211Z,99498.78
2022-11-05T08:01:23.471Z,99502.38
2022-11-05T08:02:11.684Z,99498.63
2022-11-05T08:03:07.716Z,99493.53
2022-11-05T08:03:55.501Z,99500.41
2022-11-05T08:04:42.913Z,99494.53
2022-11-05T08:05:30.844Z,99504.09
2022-11-05T08:06:17.781Z,99502.56
2022-11-05T08:07:04.823Z,99502.97
2022-11-05T08:07:54.135Z,99499.31
2022-11-05T08:08:41.075Z,99500.41
2022-11-05T08:09:27.960Z,99508.88
2022-11-05T08:10:14.788Z,99505.25
2022-11-05T08:11:10.204Z,99504.63
2022-11-05T08:12:02.665Z,99512.22
2022-11-05T08:12:50.983Z,99505.87
2022-11-05T08:13:38.482Z,99502.56
2022-11-05T08:14:25.406Z,99506.31
2022-11-05T08:15:12.315Z,99507.22
2022-11-05T08:16:00.430Z,99514.09
2022-11-05T08:16:47.421Z,99506.28
2022-11-05T08:17:34.619Z,99509.19
2022-11-05T08:18:21.929Z,99515.91
2022-11-05T08:19:08.905Z,99510.16
2022-11-05T08:19:56.093Z,99511.16
2022-11-05T08:20:44.268Z,99523.22
2022-11-05T08:21:31.102Z,99520.28
2022-11-05T08:22:18.148Z,99515.03
2022-11-05T08:23:05.518Z,99519.66
2022-11-05T08:23:52.512Z,99518.38
2022-11-05T08:24:39.476Z,99513.53
2022-11-05T08:25:27.466Z,99510.84
2022-11-05T08:26:14.518Z,99512.53
2022-11-05T08:27:01.502Z,99509.22
2022-11-05T08:27:48.798Z,99511.59
2022-11-05T08:28:35.849Z,99508.28
2022-11-05T08:29:22.905Z,99514.75
2022-11-05T08:30:10.439Z,99515.97
2022-11-05T08:30:57.950Z,99514.00
2022-11-05T08:31:45.069Z,99514.22
2022-11-05T08:32:32.162Z,99512.38
2022-11-05T08:33:20.184Z,99508.59
2022-11-05T08:34:07.952Z,99512.25
2022-11-05T08:34:54.999Z,99511.00
2022-11-05T08:35:41.896Z,99514.16
2022-11-05T08:36:28.693Z,99514.78
2022-11-05T08:37:15.687Z,99513.78
2022-11-05T08:38:04.710Z,99518.38
2022-11-05T08:38:52.388Z,99521.94
2022-11-05T08:39:39.404Z,99519.25
2022-11-05T08:40:27.193Z,99527.59
2022-11-05T08:41:14.159Z,99520.72
2022-11-05T08:42:01.123Z,99517.62
2022-11-05T08:42:48.206Z,99513.25
2022-11-05T08:43:35.197Z,99508.28
2022-11-05T08:44:22.430Z,99513.69
2022-11-05T08:45:09.947Z,99510.75
2022-11-05T08:45:57.012Z,99511.38
2022-11-05T08:46:44.073Z,99515.97
2022-11-05T08:47:31.029Z,99509.53
2022-11-05T08:48:19.041Z,99512.25
2022-11-05T08:49:06.180Z,99519.13
2022-11-05T08:49:53.208Z,99511.00
2022-11-05T08:50:40.263Z,99511.84
2022-11-05T08:51:28.510Z,99516.69
2022-11-05T08:52:15.672Z,99514.59
2022-11-05T08:53:02.779Z,99519.81
2022-11-05T08:53:49.856Z,99518.78
2022-11-05T08:54:36.907Z,99516.69
2022-11-05T08:55:24.141Z,99525.66
2022-11-05T08:56:11.198Z,99514.75
2022-11-05T08:56:58.148Z,99517.91
2022-11-05T08:57:49.054Z,99518.75
2022-11-05T08:58:36.447Z,99517.09
2022-11-05T08:59:23.462Z,99523.34
2022-11-05T09:00:11.041Z,99518.78
2022-11-05T09:01:04.489Z,99525.06
2022-11-05T09:01:52.380Z,99522.38
2022-11-05T09:02:40.368Z,99523.84
2022-11-05T09:03:27.364Z,99525.94
2022-11-05T09:04:14.662Z,99517.16
2022-11-05T09:05:01.737Z,99534.69
2022-11-05T09:05:48.976Z,99526.75
2022-11-05T09:06:35.866Z,99524.47
2022-11-05T09:07:23.277Z,99528.44
2022-11-05T09:08:16.677Z,99531.78
2022-11-05T09:09:03.825Z,99534.06
2022-11-05T09:09:50.913Z,99523.66
2022-11-05T09:10:38.257Z,99525.34
2022-11-05T09:11:43.077Z,99523.22
2022-11-05T09:12:32.391Z,99522.56
2022-11-05T09:13:20.447Z,99523.56
2022-11-05T09:14:07.673Z,99512.97
2022-11-05T09:14:54.743Z,99525.22
2022-11-05T09:15:42.248Z,99510.81
2022-11-05T09:16:29.375Z,99520.63
2022-11-05T09:17:18.448Z,99518.13
2022-11-05T09:18:09.034Z,99512.28
2022-11-05T09:18:57.182Z,99517.09
2022-11-05T09:19:44.447Z,99512.72
2022-11-05T09:20:32.388Z,99516.03
2022-11-05T09:21:19.927Z,99514.59
2022-11-05T09:22:07.027Z,99513.72
2022-11-05T09:22:54.927Z,99511.25
2022-11-05T09:23:41.851Z,99511.25
2022-11-05T09:24:28.723Z,99508.13
2022-11-05T09:25:16.227Z,99509.62
2022-11-05T09:26:03.203Z,99506.13
2022-11-05T09:26:50.869Z,99501.53
2022-11-05T09:27:37.807Z,99504.25
2022-11-05T09:28:25.818Z,99503.00
2022-11-05T09:29:14.554Z,99499.47
2022-11-05T09:30:02.025Z,99502.38
2022-11-05T09:30:51.129Z,99504.50
2022-11-05T09:31:38.291Z,99499.47
2022-11-05T09:32:25.334Z,99495.12
2022-11-05T09:33:12.710Z,99500.34
2022-11-05T09:33:59.849Z,99507.41
2022-11-05T09:34:48.766Z,99497.19
2022-11-05T09:35:38.841Z,99504.87
2022-11-05T09:36:25.933Z,99507.84
2022-11-05T09:37:12.902Z,99496.13
2022-11-05T09:38:01.077Z,99500.91
2022-11-05T09:38:48.312Z,99503.22
2022-11-05T09:39:35.587Z,99501.97
2022-11-05T09:40:22.620Z,99507.13
2022-11-05T09:41:24.503Z,99514.44
2022-11-05T09:42:14.215Z,99503.16
2022-11-05T09:43:01.713Z,99498.81
2022-11-05T09:44:00.981Z,99498.81
2022-11-05T09:44:59.933Z,99494.03
2022-11-05T09:45:49.645Z,99494.84
2022-11-05T09:46:57.411Z,99491.16
2022-11-05T09:47:49.304Z,99495.94
2022-11-05T09:48:39.256Z,99490.72
2022-11-05T09:49:40.194Z,99495.50
2022-11-05T09:50:47.290Z,99501.53
2022-11-05T09:51:36.399Z,99491.78
2022-11-05T09:52:33.652Z,99486.34
2022-11-05T09:53:22.865Z,99484.28
2022-11-05T09:54:11.011Z,99489.50
2022-11-05T09:54:58.544Z,99484.06
2022-11-05T09:56:03.369Z,99484.91